sensor_id;sensor_type;location;lat;lon;timestamp;P1;durP1;ratioP1;P2;durP2;ratioP2
6860;SDS011;3469;47.060;15.460;2022-08-19T00:02:00;8.23;;;3.20;;
6860;SDS011;3469;47.060;15.460;2022-08-19T00:04:30;13.50;;;3.93;;
6860;SDS011;3469;47.060;15.460;2022-08-19T00:06:59;6.03;;;3.73;;
6860;SDS011;3469;47.060;15.460;2022-08-19T00:09:29;10.53;;;3.70;;
6860;SDS011;3469;47.060;15.460;2022-08-19T00:11:57;13.47;;;3.60;;
6860;SDS011;3469;47.060;15.460;2022-08-19T00:14:26;8.57;;;3.47;;
6860;SDS011;3469;47.060;15.460;2022-08-19T00:16:58;8.70;;;3.57;;
6860;SDS011;3469;47.060;15.460;2022-08-19T00:19:27;7.87;;;3.30;;
6860;SDS011;3469;47.060;15.460;2022-08-19T00:21:56;6.90;;;3.10;;
6860;SDS011;3469;47.060;15.460;2022-08-19T00:24:24;8.80;;;3.70;;
6860;SDS011;3469;47.060;15.460;2022-08-19T00:26:56;11.90;;;3.90;;
6860;SDS011;3469;47.060;15.460;2022-08-19T00:29:45;8.10;;;4.10;;
6860;SDS011;3469;47.060;15.460;2022-08-19T00:32:18;8.70;;;3.47;;
6860;SDS011;3469;47.060;15.460;2022-08-19T00:34:46;6.03;;;3.33;;
6860;SDS011;3469;47.060;15.460;2022-08-19T00:37:15;14.53;;;3.87;;
6860;SDS011;3469;47.060;15.460;2022-08-19T00:39:43;9.93;;;3.90;;
6860;SDS011;3469;47.060;15.460;2022-08-19T00:42:16;9.57;;;4.27;;
6860;SDS011;3469;47.060;15.460;2022-08-19T00:44:44;6.40;;;3.80;;
6860;SDS011;3469;47.060;15.460;2022-08-19T00:47:13;5.90;;;3.40;;
6860;SDS011;3469;47.060;15.460;2022-08-19T00:49:43;8.23;;;4.23;;
6860;SDS011;3469;47.060;15.460;2022-08-19T00:52:18;5.43;;;3.20;;
6860;SDS011;3469;47.060;15.460;2022-08-19T00:54:48;6.47;;;3.90;;
6860;SDS011;3469;47.060;15.460;2022-08-19T00:57:21;13.53;;;4.63;;
6860;SDS011;3469;47.060;15.460;2022-08-19T00:59:52;15.77;;;4.67;;
6860;SDS011;3469;47.060;15.460;2022-08-19T01:02:29;9.70;;;3.93;;
6860;SDS011;3469;47.060;15.460;2022-08-19T01:04:59;8.80;;;4.10;;
6860;SDS011;3469;47.060;15.460;2022-08-19T01:07:28;12.97;;;5.20;;
6860;SDS011;3469;47.060;15.460;2022-08-19T01:10:04;10.10;;;5.10;;
6860;SDS011;3469;47.060;15.460;2022-08-19T01:12:36;7.67;;;4.00;;
6860;SDS011;3469;47.060;15.460;2022-08-19T01:15:05;9.63;;;5.93;;
6860;SDS011;3469;47.060;15.460;2022-08-19T01:17:35;15.43;;;5.40;;
6860;SDS011;3469;47.060;15.460;2022-08-19T01:20:04;16.00;;;5.07;;
6860;SDS011;3469;47.060;15.460;2022-08-19T01:22:37;7.50;;;4.40;;
6860;SDS011;3469;47.060;15.460;2022-08-19T01:25:09;10.43;;;4.90;;
6860;SDS011;3469;47.060;15.460;2022-08-19T01:27:41;11.10;;;5.67;;
6860;SDS011;3469;47.060;15.460;2022-08-19T01:30:12;10.73;;;3.40;;
6860;SDS011;3469;47.060;15.460;2022-08-19T01:32:41;8.60;;;5.40;;
6860;SDS011;3469;47.060;15.460;2022-08-19T01:35:10;5.33;;;3.37;;
6860;SDS011;3469;47.060;15.460;2022-08-19T01:37:46;10.03;;;5.60;;
6860;SDS011;3469;47.060;15.460;2022-08-19T01:40:16;7.10;;;4.50;;
6860;SDS011;3469;47.060;15.460;2022-08-19T01:42:46;10.40;;;5.53;;
6860;SDS011;3469;47.060;15.460;2022-08-19T01:45:16;12.27;;;5.53;;
6860;SDS011;3469;47.060;15.460;2022-08-19T01:47:44;13.53;;;6.00;;
6860;SDS011;3469;47.060;15.460;2022-08-19T01:50:28;11.77;;;5.20;;
6860;SDS011;3469;47.060;15.460;2022-08-19T01:52:59;9.43;;;5.80;;
6860;SDS011;3469;47.060;15.460;2022-08-19T01:55:33;10.07;;;5.33;;
6860;SDS011;3469;47.060;15.460;2022-08-19T01:58:08;9.33;;;5.53;;
6860;SDS011;3469;47.060;15.460;2022-08-19T02:00:39;7.23;;;5.33;;
6860;SDS011;3469;47.060;15.460;2022-08-19T02:03:07;11.50;;;5.60;;
6860;SDS011;3469;47.060;15.460;2022-08-19T02:05:36;10.80;;;5.77;;
6860;SDS011;3469;47.060;15.460;2022-08-19T02:08:07;9.07;;;5.03;;
6860;SDS011;3469;47.060;15.460;2022-08-19T02:10:38;9.77;;;5.90;;
6860;SDS011;3469;47.060;15.460;2022-08-19T02:13:08;8.77;;;5.20;;
6860;SDS011;3469;47.060;15.460;2022-08-19T02:15:37;7.47;;;5.60;;
6860;SDS011;3469;47.060;15.460;2022-08-19T02:18:05;10.83;;;5.33;;
6860;SDS011;3469;47.060;15.460;2022-08-19T02:20:35;9.23;;;4.93;;
6860;SDS011;3469;47.060;15.460;2022-08-19T02:23:03;10.33;;;5.70;;
6860;SDS011;3469;47.060;15.460;2022-08-19T02:25:41;8.20;;;4.73;;
6860;SDS011;3469;47.060;15.460;2022-08-19T02:28:11;8.50;;;5.17;;
6860;SDS011;3469;47.060;15.460;2022-08-19T02:30:45;10.30;;;4.83;;
6860;SDS011;3469;47.060;15.460;2022-08-19T02:33:14;12.77;;;4.40;;
6860;SDS011;3469;47.060;15.460;2022-08-19T02:35:43;8.47;;;4.37;;
6860;SDS011;3469;47.060;15.460;2022-08-19T02:38:11;7.87;;;4.07;;
6860;SDS011;3469;47.060;15.460;2022-08-19T02:40:57;8.80;;;5.00;;
6860;SDS011;3469;47.060;15.460;2022-08-19T02:43:27;8.87;;;5.40;;
6860;SDS011;3469;47.060;15.460;2022-08-19T02:46:00;9.77;;;4.60;;
6860;SDS011;3469;47.060;15.460;2022-08-19T02:48:29;7.60;;;4.93;;
6860;SDS011;3469;47.060;15.460;2022-08-19T02:50:59;6.77;;;5.27;;
6860;SDS011;3469;47.060;15.460;2022-08-19T02:53:28;10.77;;;5.10;;
6860;SDS011;3469;47.060;15.460;2022-08-19T02:55:58;8.03;;;5.07;;
6860;SDS011;3469;47.060;15.460;2022-08-19T02:58:26;8.40;;;5.37;;
6860;SDS011;3469;47.060;15.460;2022-08-19T03:00:55;8.70;;;4.30;;
6860;SDS011;3469;47.060;15.460;2022-08-19T03:03:24;13.57;;;5.90;;
6860;SDS011;3469;47.060;15.460;2022-08-19T03:06:02;9.57;;;5.63;;
6860;SDS011;3469;47.060;15.460;2022-08-19T03:08:32;8.03;;;4.93;;
6860;SDS011;3469;47.060;15.460;2022-08-19T03:11:01;9.53;;;5.83;;
6860;SDS011;3469;47.060;15.460;2022-08-19T03:13:30;10.53;;;6.50;;
6860;SDS011;3469;47.060;15.460;2022-08-19T03:15:59;10.50;;;5.50;;
6860;SDS011;3469;47.060;15.460;2022-08-19T03:18:27;8.63;;;6.27;;
6860;SDS011;3469;47.060;15.460;2022-08-19T03:20:55;8.23;;;4.77;;
6860;SDS011;3469;47.060;15.460;2022-08-19T03:23:23;13.77;;;6.67;;
6860;SDS011;3469;47.060;15.460;2022-08-19T03:25:52;15.47;;;5.90;;
6860;SDS011;3469;47.060;15.460;2022-08-19T03:28:42;8.97;;;6.40;;
6860;SDS011;3469;47.060;15.460;2022-08-19T03:31:18;9.10;;;6.10;;
6860;SDS011;3469;47.060;15.460;2022-08-19T03:34:08;11.40;;;6.43;;
6860;SDS011;3469;47.060;15.460;2022-08-19T03:36:39;9.20;;;6.57;;
6860;SDS011;3469;47.060;15.460;2022-08-19T03:39:07;8.37;;;6.07;;
6860;SDS011;3469;47.060;15.460;2022-08-19T03:41:38;12.50;;;6.77;;
6860;SDS011;3469;47.060;15.460;2022-08-19T03:44:13;9.30;;;5.77;;
6860;SDS011;3469;47.060;15.460;2022-08-19T03:46:44;7.77;;;5.37;;
6860;SDS011;3469;47.060;15.460;2022-08-19T03:49:13;7.00;;;4.90;;
6860;SDS011;3469;47.060;15.460;2022-08-19T03:51:44;7.17;;;5.43;;
6860;SDS011;3469;47.060;15.460;2022-08-19T03:54:14;7.20;;;4.33;;
6860;SDS011;3469;47.060;15.460;2022-08-19T03:56:45;10.53;;;4.93;;
6860;SDS011;3469;47.060;15.460;2022-08-19T03:59:17;8.83;;;5.47;;
6860;SDS011;3469;47.060;15.460;2022-08-19T04:01:47;8.17;;;4.50;;
6860;SDS011;3469;47.060;15.460;2022-08-19T04:04:15;7.97;;;3.83;;
6860;SDS011;3469;47.060;15.460;2022-08-19T04:06:45;6.67;;;4.00;;
6860;SDS011;3469;47.060;15.460;2022-08-19T04:09:14;9.90;;;4.13;;
6860;SDS011;3469;47.060;15.460;2022-08-19T04:11:43;9.53;;;4.93;;
6860;SDS011;3469;47.060;15.460;2022-08-19T04:14:14;9.63;;;5.20;;
6860;SDS011;3469;47.060;15.460;2022-08-19T04:16:46;11.33;;;4.73;;
6860;SDS011;3469;47.060;15.460;2022-08-19T04:19:15;13.53;;;5.40;;
6860;SDS011;3469;47.060;15.460;2022-08-19T04:21:45;9.63;;;4.30;;
6860;SDS011;3469;47.060;15.460;2022-08-19T04:24:14;10.60;;;5.30;;
6860;SDS011;3469;47.060;15.460;2022-08-19T04:26:43;10.70;;;5.30;;
6860;SDS011;3469;47.060;15.460;2022-08-19T04:29:15;10.77;;;6.20;;
6860;SDS011;3469;47.060;15.460;2022-08-19T04:31:46;10.07;;;5.60;;
6860;SDS011;3469;47.060;15.460;2022-08-19T04:34:15;8.10;;;5.50;;
6860;SDS011;3469;47.060;15.460;2022-08-19T04:36:48;8.07;;;5.63;;
6860;SDS011;3469;47.060;15.460;2022-08-19T04:39:19;6.67;;;3.97;;
6860;SDS011;3469;47.060;15.460;2022-08-19T04:41:50;3.00;;;1.83;;
6860;SDS011;3469;47.060;15.460;2022-08-19T04:44:57;4.30;;;3.00;;
6860;SDS011;3469;47.060;15.460;2022-08-19T04:47:26;3.77;;;3.30;;
6860;SDS011;3469;47.060;15.460;2022-08-19T04:50:15;11.63;;;4.70;;
6860;SDS011;3469;47.060;15.460;2022-08-19T04:52:44;7.57;;;5.33;;
6860;SDS011;3469;47.060;15.460;2022-08-19T04:55:13;6.40;;;4.20;;
6860;SDS011;3469;47.060;15.460;2022-08-19T04:57:41;6.97;;;4.23;;
6860;SDS011;3469;47.060;15.460;2022-08-19T05:00:11;6.80;;;3.90;;
6860;SDS011;3469;47.060;15.460;2022-08-19T05:02:40;7.17;;;4.57;;
6860;SDS011;3469;47.060;15.460;2022-08-19T05:05:08;7.63;;;4.10;;
6860;SDS011;3469;47.060;15.460;2022-08-19T05:07:37;6.70;;;3.83;;
6860;SDS011;3469;47.060;15.460;2022-08-19T05:10:07;5.80;;;4.27;;
6860;SDS011;3469;47.060;15.460;2022-08-19T05:12:36;7.73;;;4.23;;
6860;SDS011;3469;47.060;15.460;2022-08-19T05:15:05;6.17;;;4.30;;
6860;SDS011;3469;47.060;15.460;2022-08-19T05:17:36;8.20;;;3.93;;
6860;SDS011;3469;47.060;15.460;2022-08-19T05:20:05;6.70;;;3.60;;
6860;SDS011;3469;47.060;15.460;2022-08-19T05:22:52;9.87;;;4.40;;
6860;SDS011;3469;47.060;15.460;2022-08-19T05:25:21;6.40;;;4.10;;
6860;SDS011;3469;47.060;15.460;2022-08-19T05:27:52;8.10;;;3.80;;
6860;SDS011;3469;47.060;15.460;2022-08-19T05:30:20;5.83;;;4.30;;
6860;SDS011;3469;47.060;15.460;2022-08-19T05:33:09;7.43;;;4.00;;
6860;SDS011;3469;47.060;15.460;2022-08-19T05:35:38;8.83;;;4.57;;
6860;SDS011;3469;47.060;15.460;2022-08-19T05:38:07;7.07;;;4.17;;
6860;SDS011;3469;47.060;15.460;2022-08-19T05:40:37;10.33;;;4.10;;
6860;SDS011;3469;47.060;15.460;2022-08-19T05:43:07;6.53;;;4.60;;
6860;SDS011;3469;47.060;15.460;2022-08-19T05:45:37;11.17;;;4.80;;
6860;SDS011;3469;47.060;15.460;2022-08-19T05:48:06;7.80;;;4.93;;
6860;SDS011;3469;47.060;15.460;2022-08-19T05:50:39;16.67;;;5.53;;
6860;SDS011;3469;47.060;15.460;2022-08-19T05:53:08;9.10;;;4.80;;
6860;SDS011;3469;47.060;15.460;2022-08-19T05:55:36;9.20;;;4.30;;
6860;SDS011;3469;47.060;15.460;2022-08-19T05:58:06;7.80;;;4.50;;
6860;SDS011;3469;47.060;15.460;2022-08-19T06:00:34;9.80;;;4.50;;
6860;SDS011;3469;47.060;15.460;2022-08-19T06:03:03;9.03;;;5.10;;
6860;SDS011;3469;47.060;15.460;2022-08-19T06:05:40;6.90;;;4.50;;
6860;SDS011;3469;47.060;15.460;2022-08-19T06:08:18;7.03;;;4.30;;
6860;SDS011;3469;47.060;15.460;2022-08-19T06:11:17;12.17;;;5.77;;
6860;SDS011;3469;47.060;15.460;2022-08-19T06:13:47;10.73;;;5.10;;
6860;SDS011;3469;47.060;15.460;2022-08-19T06:16:25;10.53;;;4.77;;
6860;SDS011;3469;47.060;15.460;2022-08-19T06:18:55;11.60;;;4.87;;
6860;SDS011;3469;47.060;15.460;2022-08-19T06:21:26;16.67;;;6.07;;
6860;SDS011;3469;47.060;15.460;2022-08-19T06:23:56;12.47;;;5.30;;
6860;SDS011;3469;47.060;15.460;2022-08-19T06:26:25;11.93;;;4.40;;
6860;SDS011;3469;47.060;15.460;2022-08-19T06:28:53;7.57;;;4.17;;
6860;SDS011;3469;47.060;15.460;2022-08-19T06:31:24;7.80;;;4.43;;
6860;SDS011;3469;47.060;15.460;2022-08-19T06:33:54;8.23;;;3.83;;
6860;SDS011;3469;47.060;15.460;2022-08-19T06:36:23;10.67;;;5.00;;
6860;SDS011;3469;47.060;15.460;2022-08-19T06:38:58;8.80;;;4.10;;
6860;SDS011;3469;47.060;15.460;2022-08-19T06:41:27;7.47;;;4.10;;
6860;SDS011;3469;47.060;15.460;2022-08-19T06:43:57;11.43;;;5.00;;
6860;SDS011;3469;47.060;15.460;2022-08-19T06:46:26;7.67;;;3.73;;
6860;SDS011;3469;47.060;15.460;2022-08-19T06:48:59;11.83;;;3.40;;
6860;SDS011;3469;47.060;15.460;2022-08-19T06:51:28;6.07;;;4.07;;
6860;SDS011;3469;47.060;15.460;2022-08-19T06:54:03;6.70;;;4.70;;
6860;SDS011;3469;47.060;15.460;2022-08-19T06:56:44;8.27;;;4.17;;
6860;SDS011;3469;47.060;15.460;2022-08-19T06:59:14;7.17;;;4.37;;
6860;SDS011;3469;47.060;15.460;2022-08-19T07:01:45;4.90;;;3.20;;
6860;SDS011;3469;47.060;15.460;2022-08-19T07:04:15;5.80;;;3.57;;
6860;SDS011;3469;47.060;15.460;2022-08-19T07:06:46;5.37;;;3.70;;
6860;SDS011;3469;47.060;15.460;2022-08-19T07:09:21;10.83;;;4.20;;
6860;SDS011;3469;47.060;15.460;2022-08-19T07:11:50;10.43;;;4.67;;
6860;SDS011;3469;47.060;15.460;2022-08-19T07:14:20;5.87;;;3.80;;
6860;SDS011;3469;47.060;15.460;2022-08-19T07:16:52;5.90;;;3.33;;
6860;SDS011;3469;47.060;15.460;2022-08-19T07:19:22;10.63;;;3.80;;
6860;SDS011;3469;47.060;15.460;2022-08-19T07:21:54;10.33;;;4.30;;
6860;SDS011;3469;47.060;15.460;2022-08-19T07:24:23;7.77;;;4.07;;
6860;SDS011;3469;47.060;15.460;2022-08-19T07:26:57;6.57;;;3.80;;
6860;SDS011;3469;47.060;15.460;2022-08-19T07:29:33;7.40;;;4.67;;
6860;SDS011;3469;47.060;15.460;2022-08-19T07:32:03;10.37;;;3.80;;
6860;SDS011;3469;47.060;15.460;2022-08-19T07:34:37;5.07;;;3.20;;
6860;SDS011;3469;47.060;15.460;2022-08-19T07:37:07;6.20;;;3.63;;
6860;SDS011;3469;47.060;15.460;2022-08-19T07:39:35;8.20;;;3.63;;
6860;SDS011;3469;47.060;15.460;2022-08-19T07:42:05;4.70;;;3.70;;
6860;SDS011;3469;47.060;15.460;2022-08-19T07:44:39;5.67;;;3.63;;
6860;SDS011;3469;47.060;15.460;2022-08-19T07:47:16;5.43;;;3.80;;
6860;SDS011;3469;47.060;15.460;2022-08-19T07:50:05;8.50;;;4.50;;
6860;SDS011;3469;47.060;15.460;2022-08-19T07:52:37;5.70;;;3.83;;
6860;SDS011;3469;47.060;15.460;2022-08-19T07:55:06;6.27;;;3.33;;
6860;SDS011;3469;47.060;15.460;2022-08-19T07:57:56;3.50;;;1.63;;
6860;SDS011;3469;47.060;15.460;2022-08-19T08:00:25;5.70;;;1.80;;
6860;SDS011;3469;47.060;15.460;2022-08-19T08:02:53;7.53;;;2.13;;
6860;SDS011;3469;47.060;15.460;2022-08-19T08:05:22;2.50;;;1.40;;
6860;SDS011;3469;47.060;15.460;2022-08-19T08:08:11;4.83;;;2.57;;
6860;SDS011;3469;47.060;15.460;2022-08-19T08:10:57;7.60;;;2.40;;
6860;SDS011;3469;47.060;15.460;2022-08-19T08:13:26;8.03;;;1.83;;
6860;SDS011;3469;47.060;15.460;2022-08-19T08:15:54;5.30;;;2.03;;
6860;SDS011;3469;47.060;15.460;2022-08-19T08:18:23;1.57;;;1.47;;
6860;SDS011;3469;47.060;15.460;2022-08-19T08:20:53;5.50;;;2.77;;
6860;SDS011;3469;47.060;15.460;2022-08-19T08:23:24;4.77;;;2.93;;
6860;SDS011;3469;47.060;15.460;2022-08-19T08:25:54;7.07;;;4.00;;
6860;SDS011;3469;47.060;15.460;2022-08-19T08:28:23;8.27;;;4.77;;
6860;SDS011;3469;47.060;15.460;2022-08-19T08:30:56;7.20;;;4.70;;
6860;SDS011;3469;47.060;15.460;2022-08-19T08:33:25;8.87;;;4.90;;
6860;SDS011;3469;47.060;15.460;2022-08-19T08:36:00;8.13;;;4.80;;
6860;SDS011;3469;47.060;15.460;2022-08-19T08:38:31;16.47;;;5.93;;
6860;SDS011;3469;47.060;15.460;2022-08-19T08:41:07;9.13;;;5.40;;
6860;SDS011;3469;47.060;15.460;2022-08-19T08:43:39;8.23;;;5.10;;
6860;SDS011;3469;47.060;15.460;2022-08-19T08:46:11;9.60;;;5.83;;
6860;SDS011;3469;47.060;15.460;2022-08-19T08:49:01;6.83;;;4.30;;
6860;SDS011;3469;47.060;15.460;2022-08-19T08:51:37;7.80;;;5.23;;
6860;SDS011;3469;47.060;15.460;2022-08-19T08:54:12;9.60;;;4.80;;
6860;SDS011;3469;47.060;15.460;2022-08-19T08:56:42;6.83;;;4.50;;
6860;SDS011;3469;47.060;15.460;2022-08-19T08:59:12;9.90;;;4.80;;
6860;SDS011;3469;47.060;15.460;2022-08-19T09:01:44;6.57;;;5.30;;
6860;SDS011;3469;47.060;15.460;2022-08-19T09:04:13;8.60;;;4.77;;
6860;SDS011;3469;47.060;15.460;2022-08-19T09:06:44;9.03;;;5.20;;
6860;SDS011;3469;47.060;15.460;2022-08-19T09:09:18;6.70;;;4.60;;
6860;SDS011;3469;47.060;15.460;2022-08-19T09:11:56;6.83;;;4.73;;
6860;SDS011;3469;47.060;15.460;2022-08-19T09:14:34;11.10;;;4.23;;
6860;SDS011;3469;47.060;15.460;2022-08-19T09:17:18;6.20;;;4.10;;
6860;SDS011;3469;47.060;15.460;2022-08-19T09:19:55;7.53;;;3.97;;
6860;SDS011;3469;47.060;15.460;2022-08-19T09:22:27;9.97;;;4.33;;
6860;SDS011;3469;47.060;15.460;2022-08-19T09:24:56;10.33;;;4.37;;
6860;SDS011;3469;47.060;15.460;2022-08-19T09:27:25;9.10;;;4.03;;
6860;SDS011;3469;47.060;15.460;2022-08-19T09:30:16;5.20;;;4.07;;
6860;SDS011;3469;47.060;15.460;2022-08-19T09:32:46;9.33;;;4.47;;
6860;SDS011;3469;47.060;15.460;2022-08-19T09:35:19;7.37;;;3.87;;
6860;SDS011;3469;47.060;15.460;2022-08-19T09:37:50;7.83;;;5.00;;
6860;SDS011;3469;47.060;15.460;2022-08-19T09:40:26;9.57;;;4.60;;
6860;SDS011;3469;47.060;15.460;2022-08-19T09:42:57;8.03;;;4.70;;
6860;SDS011;3469;47.060;15.460;2022-08-19T09:45:39;6.30;;;4.40;;
6860;SDS011;3469;47.060;15.460;2022-08-19T09:48:07;4.60;;;3.87;;
6860;SDS011;3469;47.060;15.460;2022-08-19T09:50:44;9.60;;;4.23;;
6860;SDS011;3469;47.060;15.460;2022-08-19T09:53:17;9.13;;;4.57;;
6860;SDS011;3469;47.060;15.460;2022-08-19T09:55:52;6.13;;;5.10;;
6860;SDS011;3469;47.060;15.460;2022-08-19T09:58:22;9.00;;;4.77;;
6860;SDS011;3469;47.060;15.460;2022-08-19T10:00:54;10.53;;;4.90;;
6860;SDS011;3469;47.060;15.460;2022-08-19T10:03:22;6.40;;;3.80;;
6860;SDS011;3469;47.060;15.460;2022-08-19T10:05:56;4.67;;;3.60;;
6860;SDS011;3469;47.060;15.460;2022-08-19T10:08:27;7.17;;;4.27;;
6860;SDS011;3469;47.060;15.460;2022-08-19T10:10:58;6.20;;;3.70;;
6860;SDS011;3469;47.060;15.460;2022-08-19T10:13:47;8.03;;;4.10;;
6860;SDS011;3469;47.060;15.460;2022-08-19T10:16:18;5.20;;;4.20;;
6860;SDS011;3469;47.060;15.460;2022-08-19T10:18:52;14.73;;;4.67;;
6860;SDS011;3469;47.060;15.460;2022-08-19T10:21:25;6.53;;;4.30;;
6860;SDS011;3469;47.060;15.460;2022-08-19T10:23:58;6.60;;;4.70;;
6860;SDS011;3469;47.060;15.460;2022-08-19T10:26:32;7.37;;;4.80;;
6860;SDS011;3469;47.060;15.460;2022-08-19T10:29:03;5.80;;;4.30;;
6860;SDS011;3469;47.060;15.460;2022-08-19T10:31:35;7.13;;;5.10;;
6860;SDS011;3469;47.060;15.460;2022-08-19T10:34:23;6.07;;;4.17;;
6860;SDS011;3469;47.060;15.460;2022-08-19T10:36:54;8.23;;;4.50;;
6860;SDS011;3469;47.060;15.460;2022-08-19T10:39:27;5.83;;;3.70;;
6860;SDS011;3469;47.060;15.460;2022-08-19T10:42:08;8.13;;;4.43;;
6860;SDS011;3469;47.060;15.460;2022-08-19T10:44:37;10.37;;;4.70;;
6860;SDS011;3469;47.060;15.460;2022-08-19T10:47:06;7.60;;;4.20;;
6860;SDS011;3469;47.060;15.460;2022-08-19T10:49:52;7.87;;;4.30;;
6860;SDS011;3469;47.060;15.460;2022-08-19T10:52:39;6.20;;;4.53;;
6860;SDS011;3469;47.060;15.460;2022-08-19T10:55:16;8.43;;;4.50;;
6860;SDS011;3469;47.060;15.460;2022-08-19T10:58:06;5.90;;;4.00;;
6860;SDS011;3469;47.060;15.460;2022-08-19T11:00:38;7.33;;;4.13;;
6860;SDS011;3469;47.060;15.460;2022-08-19T11:03:07;8.70;;;4.40;;
6860;SDS011;3469;47.060;15.460;2022-08-19T11:05:36;5.97;;;3.33;;
6860;SDS011;3469;47.060;15.460;2022-08-19T11:08:06;7.00;;;3.80;;
6860;SDS011;3469;47.060;15.460;2022-08-19T11:10:50;7.53;;;4.40;;
6860;SDS011;3469;47.060;15.460;2022-08-19T11:13:27;7.70;;;4.30;;
6860;SDS011;3469;47.060;15.460;2022-08-19T11:15:59;7.97;;;4.67;;
6860;SDS011;3469;47.060;15.460;2022-08-19T11:18:34;6.83;;;3.93;;
6860;SDS011;3469;47.060;15.460;2022-08-19T11:21:08;6.40;;;3.73;;
6860;SDS011;3469;47.060;15.460;2022-08-19T11:23:37;6.00;;;3.77;;
6860;SDS011;3469;47.060;15.460;2022-08-19T11:26:06;6.73;;;3.43;;
6860;SDS011;3469;47.060;15.460;2022-08-19T11:28:36;5.93;;;2.97;;
6860;SDS011;3469;47.060;15.460;2022-08-19T11:31:09;6.30;;;2.90;;
6860;SDS011;3469;47.060;15.460;2022-08-19T11:33:38;8.57;;;3.60;;
6860;SDS011;3469;47.060;15.460;2022-08-19T11:36:13;5.20;;;3.40;;
6860;SDS011;3469;47.060;15.460;2022-08-19T11:38:42;5.23;;;3.27;;
6860;SDS011;3469;47.060;15.460;2022-08-19T11:41:11;5.47;;;3.87;;
6860;SDS011;3469;47.060;15.460;2022-08-19T11:43:41;8.80;;;3.30;;
6860;SDS011;3469;47.060;15.460;2022-08-19T11:46:10;6.97;;;3.40;;
6860;SDS011;3469;47.060;15.460;2022-08-19T11:48:40;5.20;;;3.37;;
6860;SDS011;3469;47.060;15.460;2022-08-19T11:51:10;4.27;;;2.93;;
6860;SDS011;3469;47.060;15.460;2022-08-19T11:53:40;6.53;;;3.20;;
6860;SDS011;3469;47.060;15.460;2022-08-19T11:56:09;3.80;;;2.67;;
6860;SDS011;3469;47.060;15.460;2022-08-19T11:58:39;7.40;;;3.00;;
6860;SDS011;3469;47.060;15.460;2022-08-19T12:01:10;8.80;;;3.00;;
6860;SDS011;3469;47.060;15.460;2022-08-19T12:03:42;10.60;;;3.70;;
6860;SDS011;3469;47.060;15.460;2022-08-19T12:06:13;7.83;;;3.30;;
6860;SDS011;3469;47.060;15.460;2022-08-19T12:08:43;8.03;;;3.53;;
6860;SDS011;3469;47.060;15.460;2022-08-19T12:11:12;3.73;;;2.70;;
6860;SDS011;3469;47.060;15.460;2022-08-19T12:13:43;5.03;;;2.80;;
6860;SDS011;3469;47.060;15.460;2022-08-19T12:16:13;6.43;;;2.80;;
6860;SDS011;3469;47.060;15.460;2022-08-19T12:18:42;7.40;;;3.53;;
6860;SDS011;3469;47.060;15.460;2022-08-19T12:21:13;6.20;;;3.27;;
6860;SDS011;3469;47.060;15.460;2022-08-19T12:23:41;12.17;;;3.63;;
6860;SDS011;3469;47.060;15.460;2022-08-19T12:26:11;5.10;;;2.73;;
6860;SDS011;3469;47.060;15.460;2022-08-19T12:28:39;6.20;;;2.60;;
6860;SDS011;3469;47.060;15.460;2022-08-19T12:31:09;5.60;;;2.90;;
6860;SDS011;3469;47.060;15.460;2022-08-19T12:33:39;6.57;;;2.90;;
6860;SDS011;3469;47.060;15.460;2022-08-19T12:36:08;7.30;;;2.93;;
6860;SDS011;3469;47.060;15.460;2022-08-19T12:38:38;7.40;;;3.33;;
6860;SDS011;3469;47.060;15.460;2022-08-19T12:41:09;4.93;;;2.40;;
6860;SDS011;3469;47.060;15.460;2022-08-19T12:43:39;7.13;;;2.77;;
6860;SDS011;3469;47.060;15.460;2022-08-19T12:46:07;4.90;;;2.40;;
6860;SDS011;3469;47.060;15.460;2022-08-19T12:48:38;4.03;;;2.63;;
6860;SDS011;3469;47.060;15.460;2022-08-19T12:51:08;8.10;;;2.70;;
6860;SDS011;3469;47.060;15.460;2022-08-19T12:53:38;7.40;;;3.10;;
6860;SDS011;3469;47.060;15.460;2022-08-19T12:56:07;5.80;;;2.73;;
6860;SDS011;3469;47.060;15.460;2022-08-19T12:58:38;7.60;;;2.30;;
6860;SDS011;3469;47.060;15.460;2022-08-19T13:01:17;7.10;;;3.10;;
6860;SDS011;3469;47.060;15.460;2022-08-19T13:03:49;6.60;;;3.27;;
6860;SDS011;3469;47.060;15.460;2022-08-19T13:06:19;6.10;;;2.97;;
6860;SDS011;3469;47.060;15.460;2022-08-19T13:08:47;6.53;;;3.00;;
6860;SDS011;3469;47.060;15.460;2022-08-19T13:11:16;12.60;;;3.30;;
6860;SDS011;3469;47.060;15.460;2022-08-19T13:13:47;7.93;;;3.50;;
6860;SDS011;3469;47.060;15.460;2022-08-19T13:16:19;8.60;;;2.90;;
6860;SDS011;3469;47.060;15.460;2022-08-19T13:18:48;8.73;;;3.63;;
6860;SDS011;3469;47.060;15.460;2022-08-19T13:21:18;7.80;;;3.10;;
6860;SDS011;3469;47.060;15.460;2022-08-19T13:23:48;10.10;;;3.63;;
6860;SDS011;3469;47.060;15.460;2022-08-19T13:26:17;8.10;;;2.90;;
6860;SDS011;3469;47.060;15.460;2022-08-19T13:28:46;7.07;;;2.80;;
6860;SDS011;3469;47.060;15.460;2022-08-19T13:31:34;5.67;;;2.63;;
6860;SDS011;3469;47.060;15.460;2022-08-19T13:34:25;8.23;;;3.10;;
6860;SDS011;3469;47.060;15.460;2022-08-19T13:36:56;12.90;;;3.10;;
6860;SDS011;3469;47.060;15.460;2022-08-19T13:39:25;6.43;;;3.13;;
6860;SDS011;3469;47.060;15.460;2022-08-19T13:41:53;7.33;;;2.60;;
6860;SDS011;3469;47.060;15.460;2022-08-19T13:44:22;8.17;;;3.00;;
6860;SDS011;3469;47.060;15.460;2022-08-19T13:46:52;6.63;;;2.77;;
6860;SDS011;3469;47.060;15.460;2022-08-19T13:49:20;12.20;;;2.50;;
6860;SDS011;3469;47.060;15.460;2022-08-19T13:51:49;6.70;;;2.73;;
6860;SDS011;3469;47.060;15.460;2022-08-19T13:54:18;7.80;;;3.40;;
6860;SDS011;3469;47.060;15.460;2022-08-19T13:56:46;6.03;;;2.43;;
6860;SDS011;3469;47.060;15.460;2022-08-19T13:59:15;6.80;;;3.13;;
6860;SDS011;3469;47.060;15.460;2022-08-19T14:01:44;4.20;;;2.67;;
6860;SDS011;3469;47.060;15.460;2022-08-19T14:04:13;9.50;;;3.03;;
6860;SDS011;3469;47.060;15.460;2022-08-19T14:06:42;6.60;;;3.00;;
6860;SDS011;3469;47.060;15.460;2022-08-19T14:09:10;9.43;;;3.10;;
6860;SDS011;3469;47.060;15.460;2022-08-19T14:11:38;8.60;;;3.47;;
6860;SDS011;3469;47.060;15.460;2022-08-19T14:14:07;8.03;;;3.30;;
6860;SDS011;3469;47.060;15.460;2022-08-19T14:16:41;7.33;;;3.30;;
6860;SDS011;3469;47.060;15.460;2022-08-19T14:19:10;8.97;;;3.27;;
6860;SDS011;3469;47.060;15.460;2022-08-19T14:21:39;7.43;;;3.10;;
6860;SDS011;3469;47.060;15.460;2022-08-19T14:24:08;10.13;;;3.40;;
6860;SDS011;3469;47.060;15.460;2022-08-19T14:26:36;8.03;;;3.13;;
6860;SDS011;3469;47.060;15.460;2022-08-19T14:29:05;5.90;;;3.30;;
6860;SDS011;3469;47.060;15.460;2022-08-19T14:31:33;6.07;;;3.23;;
6860;SDS011;3469;47.060;15.460;2022-08-19T14:34:01;9.23;;;3.83;;
6860;SDS011;3469;47.060;15.460;2022-08-19T14:36:30;6.53;;;2.67;;
6860;SDS011;3469;47.060;15.460;2022-08-19T14:39:06;5.47;;;3.07;;
6860;SDS011;3469;47.060;15.460;2022-08-19T14:41:35;9.87;;;4.20;;
6860;SDS011;3469;47.060;15.460;2022-08-19T14:44:04;11.23;;;3.73;;
6860;SDS011;3469;47.060;15.460;2022-08-19T14:46:32;10.07;;;4.20;;
6860;SDS011;3469;47.060;15.460;2022-08-19T14:49:00;7.87;;;3.77;;
6860;SDS011;3469;47.060;15.460;2022-08-19T14:51:35;7.90;;;3.30;;
6860;SDS011;3469;47.060;15.460;2022-08-19T14:54:03;7.63;;;3.57;;
6860;SDS011;3469;47.060;15.460;2022-08-19T14:56:33;7.33;;;3.30;;
6860;SDS011;3469;47.060;15.460;2022-08-19T14:59:02;5.93;;;3.13;;
6860;SDS011;3469;47.060;15.460;2022-08-19T15:01:30;7.97;;;3.10;;
6860;SDS011;3469;47.060;15.460;2022-08-19T15:03:58;8.53;;;3.30;;
6860;SDS011;3469;47.060;15.460;2022-08-19T15:06:27;7.93;;;3.33;;
6860;SDS011;3469;47.060;15.460;2022-08-19T15:08:55;9.27;;;3.10;;
6860;SDS011;3469;47.060;15.460;2022-08-19T15:11:29;6.53;;;3.80;;
6860;SDS011;3469;47.060;15.460;2022-08-19T15:14:00;8.73;;;3.20;;
6860;SDS011;3469;47.060;15.460;2022-08-19T15:16:28;5.23;;;2.90;;
6860;SDS011;3469;47.060;15.460;2022-08-19T15:18:57;7.17;;;3.20;;
6860;SDS011;3469;47.060;15.460;2022-08-19T15:21:27;10.40;;;3.10;;
6860;SDS011;3469;47.060;15.460;2022-08-19T15:23:56;10.23;;;3.33;;
6860;SDS011;3469;47.060;15.460;2022-08-19T15:26:25;7.07;;;3.10;;